Time;durP1;ratioP1;P1;durP2;ratioP2;P2;SDS_P1;SDS_P2;PMS_P1;PMS_P2;Temp;Humidity;BMP_temperature;BMP_pressure;BME280_temperature;BME280_humidity;BME280_pressure;Samples;Min_cycle;Max_cycle;Signal;HPM_P1;HPM_P2
2023/04/26 00:00:54;;;;;;;28.20;18.27;;;10.10;99.90;;;;;;4894887;29;20038;-77
2023/04/26 00:03:20;;;;;;;26.98;17.25;;;10.10;99.90;;;;;;4883882;29;20080;-77
2023/04/26 00:05:46;;;;;;;23.05;16.25;;;10.10;99.90;;;;;;4885289;29;20108;-78
2023/04/26 00:08:12;;;;;;;26.00;16.45;;;10.20;99.90;;;;;;4884427;29;20108;-76
2023/04/26 00:10:39;;;;;;;27.02;18.42;;;10.20;99.90;;;;;;4883423;29;20034;-78
2023/04/26 00:13:05;;;;;;;27.83;17.83;;;10.20;99.90;;;;;;4882549;29;20033;-75
2023/04/26 00:15:32;;;;;;;23.55;15.52;;;10.20;99.90;;;;;;4884067;29;20107;-76
2023/04/26 00:17:57;;;;;;;23.83;15.85;;;10.20;99.90;;;;;;4896232;29;20020;-76
2023/04/26 00:20:24;;;;;;;24.80;14.98;;;10.20;99.90;;;;;;4899994;29;20028;-76
2023/04/26 00:22:49;;;;;;;22.88;13.98;;;10.10;99.90;;;;;;4899895;29;20030;-77
2023/04/26 00:25:16;;;;;;;25.63;15.18;;;10.10;99.90;;;;;;4900037;29;20028;-78
2023/04/26 00:27:42;;;;;;;25.45;13.77;;;10.00;99.90;;;;;;4899782;29;20068;-79
2023/04/26 00:30:09;;;;;;;23.77;14.88;;;10.00;99.90;;;;;;4899109;29;20029;-78
2023/04/26 00:32:35;;;;;;;22.58;14.35;;;9.90;99.90;;;;;;4907156;29;20425;-76
2023/04/26 00:35:03;;;;;;;22.88;12.98;;;9.90;99.90;;;;;;4882568;29;20052;-74
2023/04/26 00:37:30;;;;;;;18.80;11.45;;;9.80;99.90;;;;;;4899457;29;20056;-77
2023/04/26 00:39:56;;;;;;;18.45;11.10;;;9.80;99.90;;;;;;4899761;29;20092;-76
2023/04/26 00:42:22;;;;;;;19.42;9.50;;;9.90;99.90;;;;;;4899678;29;20072;-76
2023/04/26 00:44:49;;;;;;;16.45;8.80;;;9.90;99.90;;;;;;4898473;29;20021;-77
2023/04/26 00:47:15;;;;;;;13.85;8.25;;;9.90;99.90;;;;;;4899641;29;20115;-73
2023/04/26 00:49:40;;;;;;;13.55;8.15;;;9.90;99.90;;;;;;4888391;29;20149;-77
2023/04/26 00:52:07;;;;;;;12.90;8.18;;;10.00;99.90;;;;;;4899148;29;20025;-76
2023/04/26 00:54:33;;;;;;;15.77;8.27;;;10.10;99.90;;;;;;4882973;29;20458;-77
2023/04/26 00:56:59;;;;;;;13.63;7.50;;;10.10;99.90;;;;;;4899165;29;20047;-74
2023/04/26 00:59:25;;;;;;;14.00;8.82;;;10.10;99.90;;;;;;4893845;29;20418;-73
2023/04/26 01:01:51;;;;;;;12.75;6.85;;;10.00;99.90;;;;;;4899317;29;20111;-72
2023/04/26 01:04:17;;;;;;;16.25;9.55;;;10.10;99.90;;;;;;4899295;29;20095;-78
2023/04/26 01:06:44;;;;;;;15.57;8.13;;;10.20;99.90;;;;;;4866760;29;20608;-72
2023/04/26 01:09:13;;;;;;;13.40;7.50;;;10.20;99.90;;;;;;4899016;29;20044;-74
2023/04/26 01:11:41;;;;;;;11.88;6.60;;;10.20;99.90;;;;;;4882284;29;20107;-75
2023/04/26 01:14:07;;;;;;;10.82;6.85;;;10.20;99.90;;;;;;4881283;29;20024;-73
2023/04/26 01:16:34;;;;;;;10.43;6.28;;;10.20;99.90;;;;;;4866213;29;20046;-73
2023/04/26 01:19:11;;;;;;;11.25;5.85;;;10.20;99.90;;;;;;4899053;29;20427;-74
2023/04/26 01:21:39;;;;;;;12.45;6.43;;;10.30;99.90;;;;;;4881544;29;20048;-73
2023/04/26 01:24:05;;;;;;;8.75;5.32;;;10.30;99.90;;;;;;4899152;29;20021;-72
2023/04/26 01:26:31;;;;;;;10.10;5.35;;;10.20;99.90;;;;;;4898851;29;20028;-74
2023/04/26 01:28:57;;;;;;;9.45;5.15;;;10.20;99.90;;;;;;4898928;29;20421;-72
2023/04/26 01:31:23;;;;;;;10.73;4.85;;;10.20;99.90;;;;;;4898649;29;20024;-76
2023/04/26 01:33:50;;;;;;;8.70;5.03;;;10.20;99.90;;;;;;4898745;29;20556;-74
2023/04/26 01:36:18;;;;;;;9.15;4.25;;;10.10;99.90;;;;;;4897611;29;20060;-75
2023/04/26 01:38:44;;;;;;;9.27;5.03;;;10.10;99.90;;;;;;4898622;29;20079;-72
2023/04/26 01:41:10;;;;;;;9.75;4.65;;;10.10;99.90;;;;;;4898229;29;20446;-74
2023/04/26 01:43:35;;;;;;;7.80;4.53;;;10.10;99.90;;;;;;4881621;29;20024;-73
2023/04/26 01:46:01;;;;;;;8.45;4.57;;;10.10;99.90;;;;;;4898459;29;20473;-74
2023/04/26 01:48:28;;;;;;;11.38;4.57;;;10.10;99.90;;;;;;4890840;29;20434;-73
2023/04/26 01:50:53;;;;;;;8.73;4.78;;;10.10;99.90;;;;;;4898347;29;20032;-72
2023/04/26 01:53:20;;;;;;;9.05;4.95;;;10.10;99.90;;;;;;4881685;29;20481;-77
2023/04/26 01:55:45;;;;;;;9.45;4.93;;;10.10;99.90;;;;;;4898268;29;20024;-73
2023/04/26 01:58:11;;;;;;;7.90;4.20;;;10.00;99.90;;;;;;4893813;29;20108;-77
2023/04/26 02:00:37;;;;;;;8.55;4.53;;;10.00;99.90;;;;;;4899519;29;20048;-76
2023/04/26 02:03:03;;;;;;;11.80;5.22;;;10.00;99.90;;;;;;4900220;29;20028;-75
2023/04/26 02:05:29;;;;;;;8.55;4.30;;;10.00;99.90;;;;;;4900169;29;20099;-73
2023/04/26 02:07:55;;;;;;;9.43;4.35;;;10.00;99.90;;;;;;4917026;29;20114;-75
2023/04/26 02:10:21;;;;;;;6.30;3.88;;;10.00;99.90;;;;;;4916994;29;20103;-74
2023/04/26 02:12:47;;;;;;;8.48;4.78;;;10.00;99.90;;;;;;4900003;29;20437;-75
2023/04/26 02:15:14;;;;;;;8.32;4.53;;;10.00;99.90;;;;;;4899377;29;20028;-72
2023/04/26 02:17:39;;;;;;;5.47;3.53;;;10.00;99.90;;;;;;4916854;29;20064;-72
2023/04/26 02:20:09;;;;;;;10.63;4.75;;;10.00;99.90;;;;;;4899825;29;20141;-73
2023/04/26 02:22:35;;;;;;;9.07;4.10;;;10.10;99.90;;;;;;4900225;29;20038;-74
2023/04/26 02:25:02;;;;;;;6.53;4.25;;;10.00;99.90;;;;;;4900115;29;20056;-75
2023/04/26 02:27:28;;;;;;;7.05;4.00;;;10.00;99.90;;;;;;4916966;29;20027;-74
2023/04/26 02:29:54;;;;;;;7.25;3.92;;;10.00;99.90;;;;;;4899442;29;20044;-75
2023/04/26 02:32:20;;;;;;;7.40;4.45;;;10.00;99.90;;;;;;4916671;29;20024;-76
2023/04/26 02:34:46;;;;;;;9.15;4.90;;;10.00;99.90;;;;;;4899782;29;20506;-73
2023/04/26 02:37:12;;;;;;;9.35;4.38;;;10.00;99.90;;;;;;4898771;29;20038;-76
2023/04/26 02:39:37;;;;;;;7.20;4.10;;;10.00;99.90;;;;;;4908269;29;20108;-74
2023/04/26 02:42:08;;;;;;;7.75;4.57;;;10.00;99.90;;;;;;4900209;29;20044;-74
2023/04/26 02:44:34;;;;;;;6.32;3.60;;;9.90;99.90;;;;;;4907407;29;20033;-72
2023/04/26 02:47:00;;;;;;;6.82;3.90;;;10.00;99.90;;;;;;4899581;29;20036;-75
2023/04/26 02:49:26;;;;;;;7.75;3.55;;;10.00;99.90;;;;;;4899647;29;20112;-76
2023/04/26 02:51:52;;;;;;;8.40;4.60;;;9.90;99.90;;;;;;4917630;29;20469;-73
2023/04/26 02:54:18;;;;;;;6.28;3.92;;;9.90;99.90;;;;;;4903513;29;20124;-75
2023/04/26 02:56:44;;;;;;;6.53;3.70;;;9.90;99.90;;;;;;4916279;29;20110;-76
2023/04/26 02:59:10;;;;;;;11.38;4.57;;;9.90;99.90;;;;;;4901938;29;20120;-77
2023/04/26 03:01:36;;;;;;;7.05;4.03;;;9.90;99.90;;;;;;4884679;29;20134;-74
2023/04/26 03:04:01;;;;;;;8.15;3.65;;;9.80;99.90;;;;;;4901448;29;20164;-74
2023/04/26 03:06:28;;;;;;;7.15;3.92;;;9.70;99.90;;;;;;4884545;29;20142;-77
2023/04/26 03:08:55;;;;;;;6.80;4.43;;;9.70;99.90;;;;;;4884507;29;20025;-74
2023/04/26 03:11:21;;;;;;;7.07;4.05;;;9.70;99.90;;;;;;4899530;29;20492;-76
2023/04/26 03:13:46;;;;;;;8.15;4.60;;;9.70;99.90;;;;;;4897009;29;20037;-75
2023/04/26 03:16:13;;;;;;;9.18;4.07;;;9.70;99.90;;;;;;4877485;29;20028;-75
2023/04/26 03:18:39;;;;;;;8.82;4.22;;;9.70;99.90;;;;;;4896311;29;20032;-74
2023/04/26 03:21:07;;;;;;;8.27;4.43;;;9.70;99.90;;;;;;4880928;29;20045;-75
2023/04/26 03:23:33;;;;;;;7.32;4.15;;;9.70;99.90;;;;;;4874945;29;20119;-77
2023/04/26 03:25:59;;;;;;;9.00;4.10;;;9.60;99.90;;;;;;4884506;29;20119;-73
2023/04/26 03:28:25;;;;;;;7.55;4.15;;;9.70;99.90;;;;;;4884061;29;20056;-77
2023/04/26 03:30:51;;;;;;;8.77;4.40;;;9.70;99.90;;;;;;4884347;29;20035;-73
2023/04/26 03:33:18;;;;;;;9.90;5.13;;;9.70;99.90;;;;;;4868829;29;20036;-76
2023/04/26 03:35:44;;;;;;;10.38;4.97;;;9.70;99.90;;;;;;4883774;29;20100;-73
2023/04/26 03:38:10;;;;;;;9.43;4.60;;;9.80;99.90;;;;;;4883868;29;20489;-74
2023/04/26 03:40:36;;;;;;;8.50;4.28;;;9.70;99.90;;;;;;4878141;29;20139;-73
2023/04/26 03:43:02;;;;;;;7.45;4.63;;;9.70;99.90;;;;;;4884053;29;20533;-77
2023/04/26 03:45:29;;;;;;;7.70;4.65;;;9.70;99.90;;;;;;4884066;29;20096;-75
2023/04/26 03:47:55;;;;;;;9.85;5.18;;;9.60;99.90;;;;;;4883590;29;20029;-75
2023/04/26 03:50:21;;;;;;;14.63;6.82;;;9.70;99.90;;;;;;4900870;29;20057;-76
2023/04/26 03:52:47;;;;;;;18.70;9.48;;;9.70;99.90;;;;;;4883797;29;20025;-73
2023/04/26 03:55:14;;;;;;;20.20;9.57;;;9.80;99.90;;;;;;4883892;29;20473;-76
2023/04/26 03:57:40;;;;;;;15.75;7.97;;;9.80;99.90;;;;;;4891992;29;20566;-74
2023/04/26 04:00:10;;;;;;;8.73;5.07;;;9.80;99.90;;;;;;4902390;29;20036;-75
2023/04/26 04:02:41;;;;;;;9.73;4.78;;;9.80;99.90;;;;;;4918768;29;20092;-73
2023/04/26 04:05:08;;;;;;;7.43;4.55;;;9.90;99.90;;;;;;4902340;29;20427;-77
2023/04/26 04:07:36;;;;;;;8.05;4.43;;;9.90;99.90;;;;;;4902004;29;20031;-76
2023/04/26 04:10:02;;;;;;;8.88;4.40;;;9.90;99.90;;;;;;4919447;29;20526;-75
2023/04/26 04:12:28;;;;;;;9.48;5.57;;;10.00;99.90;;;;;;4888997;29;20048;-72
2023/04/26 04:14:54;;;;;;;11.23;5.35;;;10.00;99.90;;;;;;4895059;29;20493;-72
2023/04/26 04:17:21;;;;;;;9.60;5.53;;;10.00;99.90;;;;;;4887258;29;20028;-75
2023/04/26 04:19:47;;;;;;;21.50;11.05;;;10.00;99.90;;;;;;4899832;29;20041;-72
2023/04/26 04:22:13;;;;;;;18.38;8.32;;;10.00;99.90;;;;;;4899502;29;20054;-73
2023/04/26 04:24:41;;;;;;;23.90;12.57;;;10.00;99.90;;;;;;4900549;29;20089;-73
2023/04/26 04:27:07;;;;;;;24.33;12.77;;;10.00;99.90;;;;;;4895588;29;20468;-73
2023/04/26 04:29:34;;;;;;;19.25;10.02;;;10.00;99.90;;;;;;4895161;29;20377;-72
2023/04/26 04:32:00;;;;;;;20.88;8.95;;;10.00;99.90;;;;;;4912170;29;20080;-73
2023/04/26 04:34:26;;;;;;;10.88;6.75;;;10.00;99.90;;;;;;4899971;29;20040;-73
2023/04/26 04:36:53;;;;;;;8.65;5.75;;;10.10;99.90;;;;;;4901571;29;20056;-74
2023/04/26 04:39:20;;;;;;;10.02;5.15;;;10.00;99.90;;;;;;4901765;29;20068;-73
2023/04/26 04:41:47;;;;;;;8.95;5.47;;;10.10;99.90;;;;;;4901666;29;20052;-73
2023/04/26 04:44:15;;;;;;;7.18;4.93;;;10.10;99.90;;;;;;4894721;29;20107;-76
2023/04/26 04:46:42;;;;;;;7.05;4.18;;;10.10;99.90;;;;;;4895177;29;20032;-74
2023/04/26 04:49:10;;;;;;;6.40;4.22;;;10.00;99.90;;;;;;4896224;29;20032;-73
2023/04/26 04:51:36;;;;;;;5.78;4.00;;;10.00;99.90;;;;;;4901373;29;20035;-73
2023/04/26 04:54:12;;;;;;;7.65;4.47;;;9.90;99.90;;;;;;4901716;29;20024;-76
2023/04/26 04:56:38;;;;;;;7.65;4.55;;;10.00;99.90;;;;;;4884877;29;20032;-78
2023/04/26 04:59:05;;;;;;;11.35;5.05;;;9.90;99.90;;;;;;4874402;29;20049;-74
2023/04/26 05:01:32;;;;;;;7.55;4.72;;;9.90;99.90;;;;;;4878058;29;20063;-76
2023/04/26 05:03:59;;;;;;;9.25;4.43;;;9.90;99.90;;;;;;4882725;29;20025;-73
2023/04/26 05:06:26;;;;;;;8.43;4.90;;;9.90;99.90;;;;;;4882050;29;20039;-77
2023/04/26 05:08:52;;;;;;;10.77;6.07;;;10.00;99.90;;;;;;4887268;29;20405;-72
2023/04/26 05:11:18;;;;;;;8.57;5.53;;;10.00;99.90;;;;;;4869502;29;20040;-72
2023/04/26 05:13:45;;;;;;;9.88;5.45;;;10.00;99.90;;;;;;4880375;29;20036;-72
2023/04/26 05:16:12;;;;;;;11.02;6.03;;;10.00;99.90;;;;;;4878270;29;21592;-77
2023/04/26 05:18:38;;;;;;;10.18;5.40;;;9.90;99.90;;;;;;4879267;29;20040;-76
2023/04/26 05:21:04;;;;;;;15.73;7.63;;;9.90;99.90;;;;;;4867940;29;20050;-72
2023/04/26 05:23:30;;;;;;;25.23;11.75;;;9.90;99.90;;;;;;4869140;29;20487;-73
2023/04/26 05:26:00;;;;;;;35.03;19.42;;;9.90;99.90;;;;;;4882035;29;20028;-72
2023/04/26 05:28:44;;;;;;;34.60;19.98;;;9.90;99.90;;;;;;4897613;29;20044;-72
2023/04/26 05:31:23;;;;;;;25.88;12.90;;;10.00;99.90;;;;;;4872089;29;20032;-72
2023/04/26 05:34:15;;;;;;;19.90;9.30;;;9.90;99.90;;;;;;4875841;29;20032;-72
2023/04/26 05:36:41;;;;;;;18.33;9.43;;;10.00;99.90;;;;;;4866969;29;20029;-73
2023/04/26 05:39:07;;;;;;;16.00;9.80;;;10.00;99.90;;;;;;4868286;29;20087;-74
2023/04/26 05:41:33;;;;;;;20.13;9.10;;;10.10;99.90;;;;;;4877850;29;20044;-73
2023/04/26 05:43:59;;;;;;;17.05;9.00;;;10.10;99.90;;;;;;4871645;29;20553;-74
2023/04/26 05:46:25;;;;;;;16.02;8.05;;;10.10;99.90;;;;;;4871664;29;20073;-73
2023/04/26 05:48:51;;;;;;;19.17;9.77;;;10.20;99.90;;;;;;4904460;29;20474;-72
2023/04/26 05:51:17;;;;;;;16.13;8.00;;;10.20;99.90;;;;;;4884900;29;20040;-75
2023/04/26 05:53:43;;;;;;;15.77;8.05;;;10.20;99.90;;;;;;4877858;29;20088;-77
2023/04/26 05:56:08;;;;;;;11.70;7.55;;;10.20;99.90;;;;;;4877505;29;20056;-76
2023/04/26 05:58:34;;;;;;;15.18;8.25;;;10.20;99.90;;;;;;4893314;29;20421;-72
2023/04/26 06:01:02;;;;;;;13.05;7.70;;;10.10;99.90;;;;;;4891120;29;20495;-72
2023/04/26 06:03:28;;;;;;;17.35;8.27;;;10.10;99.90;;;;;;4899284;29;20115;-71
2023/04/26 06:05:53;;;;;;;10.45;6.30;;;10.10;99.90;;;;;;4916877;29;20049;-72
2023/04/26 06:08:21;;;;;;;13.10;7.13;;;10.20;99.90;;;;;;4895625;29;20032;-72
2023/04/26 06:10:48;;;;;;;11.65;6.72;;;10.10;99.90;;;;;;4899752;29;20040;-73
2023/04/26 06:13:15;;;;;;;11.70;6.15;;;10.20;99.90;;;;;;4896448;29;20032;-73
2023/04/26 06:15:42;;;;;;;11.95;6.88;;;10.20;99.90;;;;;;4898345;29;20032;-77
2023/04/26 06:18:07;;;;;;;9.02;5.88;;;10.30;99.90;;;;;;4903174;29;20119;-76
2023/04/26 06:20:33;;;;;;;10.20;5.70;;;10.20;99.90;;;;;;4897021;29;20563;-73
2023/04/26 06:22:59;;;;;;;11.02;6.38;;;10.40;99.90;;;;;;4886194;29;20397;-76
2023/04/26 06:25:25;;;;;;;12.27;7.03;;;10.40;99.90;;;;;;4891128;29;20024;-75
2023/04/26 06:27:51;;;;;;;11.65;6.00;;;10.50;99.90;;;;;;4896424;29;20392;-73
2023/04/26 06:30:17;;;;;;;14.13;7.55;;;10.50;99.90;;;;;;4897125;29;20036;-74
2023/04/26 06:32:46;;;;;;;16.55;9.60;;;10.60;99.90;;;;;;4878715;29;20016;-73
2023/04/26 06:35:13;;;;;;;13.00;6.45;;;10.80;99.90;;;;;;4881055;29;20029;-73
2023/04/26 06:37:39;;;;;;;11.80;6.18;;;10.80;99.90;;;;;;4897985;29;20172;-73
2023/04/26 06:40:06;;;;;;;11.02;6.63;;;10.80;99.90;;;;;;4880938;29;20129;-76
2023/04/26 06:42:33;;;;;;;9.90;6.13;;;10.70;99.90;;;;;;4880882;29;20116;-77
2023/04/26 06:45:31;;;;;;;10.85;6.32;;;10.70;99.90;;;;;;4817378;29;20395;-76
2023/04/26 06:47:59;;;;;;;13.15;6.60;;;10.60;99.90;;;;;;4798844;29;20042;-76
2023/04/26 06:50:26;;;;;;;12.90;6.50;;;10.60;99.90;;;;;;4802268;29;20031;-72
2023/04/26 06:52:52;;;;;;;11.85;6.90;;;10.60;99.90;;;;;;4822099;29;20118;-72
2023/04/26 06:55:18;;;;;;;11.60;6.82;;;10.60;99.90;;;;;;4821742;29;20050;-74
2023/04/26 06:57:44;;;;;;;12.30;7.00;;;10.60;99.90;;;;;;4821563;29;20110;-73
2023/04/26 07:00:11;;;;;;;13.75;7.82;;;10.60;99.90;;;;;;4808411;29;20065;-74
2023/04/26 07:02:37;;;;;;;11.45;7.10;;;10.70;99.90;;;;;;4802256;29;20050;-77
2023/04/26 07:05:03;;;;;;;12.93;6.82;;;10.90;99.90;;;;;;4821138;29;20112;-76
2023/04/26 07:07:29;;;;;;;11.60;6.72;;;11.00;99.90;;;;;;4821953;29;20034;-75
2023/04/26 07:09:55;;;;;;;11.60;7.07;;;11.10;99.90;;;;;;4807041;29;20046;-77
2023/04/26 07:12:21;;;;;;;13.30;7.60;;;11.10;99.90;;;;;;4812657;29;20035;-74
2023/04/26 07:14:46;;;;;;;19.00;6.72;;;11.10;99.90;;;;;;4826683;29;20502;-78
2023/04/26 07:17:12;;;;;;;10.52;6.72;;;11.10;99.90;;;;;;4834649;29;20155;-79
2023/04/26 07:19:38;;;;;;;11.95;6.80;;;11.10;99.90;;;;;;4836162;29;20030;-74
2023/04/26 07:22:04;;;;;;;15.30;7.65;;;11.10;99.90;;;;;;4908830;29;20476;-76
2023/04/26 07:24:30;;;;;;;10.75;7.25;;;11.20;99.90;;;;;;4914913;29;20127;-74
2023/04/26 07:26:56;;;;;;;15.27;8.63;;;11.30;99.90;;;;;;4913104;29;20035;-78
2023/04/26 07:29:22;;;;;;;10.32;6.53;;;11.40;99.90;;;;;;4914837;29;20060;-74
2023/04/26 07:31:48;;;;;;;17.30;6.43;;;11.50;99.90;;;;;;4908279;29;20149;-76
2023/04/26 07:34:14;;;;;;;12.93;6.93;;;11.70;99.90;;;;;;4909454;29;20028;-74
2023/04/26 07:36:39;;;;;;;15.70;7.35;;;11.70;99.90;;;;;;4914165;29;20492;-73
2023/04/26 07:39:07;;;;;;;11.18;6.93;;;11.70;99.90;;;;;;4918862;29;20499;-76
2023/04/26 07:41:33;;;;;;;12.48;7.18;;;11.70;99.90;;;;;;4907148;29;20404;-75
2023/04/26 07:43:59;;;;;;;13.30;6.55;;;11.90;99.90;;;;;;4894569;29;20031;-75
2023/04/26 07:46:25;;;;;;;12.75;6.78;;;11.90;99.90;;;;;;4914533;29;20032;-73
2023/04/26 07:48:51;;;;;;;12.38;6.63;;;11.90;99.90;;;;;;4905967;29;20433;-76
2023/04/26 07:51:17;;;;;;;13.20;6.30;;;12.00;99.90;;;;;;4910229;29;20433;-76
2023/04/26 07:53:42;;;;;;;9.60;6.07;;;12.20;99.90;;;;;;4910216;29;20043;-74
2023/04/26 07:56:08;;;;;;;14.85;6.43;;;12.20;99.90;;;;;;4908766;29;20032;-78
2023/04/26 07:58:37;;;;;;;10.38;6.10;;;12.30;99.90;;;;;;4898818;29;20053;-77
2023/04/26 08:01:03;;;;;;;12.50;6.25;;;12.20;99.90;;;;;;4892711;29;20044;-75
2023/04/26 08:03:30;;;;;;;11.60;6.55;;;12.10;99.90;;;;;;4886329;29;20389;-74
2023/04/26 08:05:57;;;;;;;9.38;5.75;;;12.20;99.90;;;;;;4882258;29;20393;-76
2023/04/26 08:08:28;;;;;;;12.23;6.15;;;12.30;99.90;;;;;;4863593;29;20037;-76
2023/04/26 08:10:54;;;;;;;8.35;5.30;;;12.30;99.90;;;;;;4895555;29;20071;-74
2023/04/26 08:13:20;;;;;;;10.43;5.28;;;12.50;99.90;;;;;;4865383;29;20450;-73
2023/04/26 08:15:47;;;;;;;10.13;5.63;;;12.40;99.90;;;;;;4886734;29;20036;-73
2023/04/26 08:18:13;;;;;;;9.77;5.95;;;12.50;99.90;;;;;;4883924;29;20017;-73
2023/04/26 08:20:39;;;;;;;11.38;6.60;;;12.80;99.90;;;;;;4885832;29;20045;-74
2023/04/26 08:23:05;;;;;;;11.73;6.20;;;12.70;99.90;;;;;;4881434;29;20029;-73
2023/04/26 08:25:33;;;;;;;12.98;7.82;;;12.90;99.90;;;;;;4867714;29;20054;-76
2023/04/26 08:27:59;;;;;;;10.15;6.07;;;12.90;99.90;;;;;;4885950;29;20024;-73
2023/04/26 08:30:25;;;;;;;12.48;6.95;;;13.00;99.90;;;;;;4889294;29;20040;-77
2023/04/26 08:32:51;;;;;;;11.18;6.40;;;13.20;99.90;;;;;;4884624;29;20029;-73
2023/04/26 08:35:17;;;;;;;14.68;6.90;;;13.30;99.90;;;;;;4890910;29;20039;-73
2023/04/26 08:37:43;;;;;;;11.38;6.32;;;13.00;99.90;;;;;;4899975;29;20031;-77
2023/04/26 08:40:09;;;;;;;16.23;8.18;;;13.20;99.90;;;;;;4899797;29;20076;-77
2023/04/26 08:42:42;;;;;;;12.00;6.65;;;13.20;99.90;;;;;;4899809;29;20060;-73
2023/04/26 08:45:10;;;;;;;17.33;8.27;;;13.40;99.90;;;;;;4887716;29;20025;-74
2023/04/26 08:47:43;;;;;;;11.10;6.43;;;13.40;99.90;;;;;;4891473;29;20033;-77
2023/04/26 08:50:11;;;;;;;11.68;5.07;;;13.70;99.90;;;;;;4887179;29;20037;-78
2023/04/26 08:52:39;;;;;;;9.73;5.40;;;13.50;99.90;;;;;;4890909;29;20028;-72
2023/04/26 08:55:08;;;;;;;9.38;4.72;;;13.60;99.90;;;;;;4888894;29;20032;-76
2023/04/26 08:57:35;;;;;;;11.55;5.18;;;13.50;99.90;;;;;;4891688;29;20060;-73
2023/04/26 09:00:05;;;;;;;10.60;5.38;;;13.60;99.90;;;;;;4897906;29;20477;-76
2023/04/26 09:02:31;;;;;;;13.23;5.75;;;13.80;99.90;;;;;;4888566;29;20024;-73
2023/04/26 09:04:57;;;;;;;12.88;5.28;;;13.90;98.70;;;;;;4890911;29;20059;-77
2023/04/26 09:07:41;;;;;;;6.50;4.32;;;14.00;98.40;;;;;;4899269;29;20048;-73
2023/04/26 09:10:08;;;;;;;8.43;4.85;;;13.90;97.10;;;;;;4878000;29;20037;-73
2023/04/26 09:12:35;;;;;;;9.80;4.47;;;14.10;98.50;;;;;;4893985;29;20039;-76
2023/04/26 09:15:03;;;;;;;5.90;3.58;;;14.10;97.60;;;;;;4870637;29;20040;-75
2023/04/26 09:17:40;;;;;;;11.10;4.40;;;14.00;97.60;;;;;;4899392;29;20116;-73
2023/04/26 09:20:28;;;;;;;7.53;4.47;;;14.20;98.70;;;;;;4896862;29;20048;-73
2023/04/26 09:23:05;;;;;;;9.13;4.88;;;14.40;97.00;;;;;;4903796;29;20037;-73
2023/04/26 09:25:31;;;;;;;6.88;4.25;;;14.60;98.10;;;;;;4899493;29;20064;-73
2023/04/26 09:27:58;;;;;;;8.27;4.20;;;14.40;96.70;;;;;;4886543;29;20052;-76
2023/04/26 09:30:24;;;;;;;6.60;3.72;;;14.40;97.20;;;;;;4898804;29;20532;-73
2023/04/26 09:33:02;;;;;;;6.75;3.63;;;14.20;95.60;;;;;;4898490;29;20021;-72
2023/04/26 09:35:40;;;;;;;6.72;4.05;;;14.40;96.50;;;;;;4890395;29;20555;-75
2023/04/26 09:38:07;;;;;;;6.55;4.07;;;14.40;95.80;;;;;;4894645;29;20092;-77
2023/04/26 09:40:39;;;;;;;10.05;4.07;;;14.40;95.50;;;;;;4897087;29;20044;-73
2023/04/26 09:43:14;;;;;;;16.58;4.70;;;14.20;95.80;;;;;;4876948;29;20043;-73
2023/04/26 09:45:45;;;;;;;9.95;4.82;;;14.20;95.10;;;;;;4889940;29;20099;-74
2023/04/26 09:48:21;;;;;;;7.05;3.83;;;14.50;96.50;;;;;;4892715;29;20485;-75
2023/04/26 09:50:48;;;;;;;6.30;3.90;;;14.60;96.10;;;;;;4883998;29;20079;-74
2023/04/26 09:53:27;;;;;;;6.90;3.78;;;14.80;96.80;;;;;;4894867;29;20031;-73
2023/04/26 09:55:54;;;;;;;6.40;4.30;;;15.00;96.00;;;;;;4881661;29;20396;-75
2023/04/26 09:58:21;;;;;;;7.00;3.97;;;14.80;96.50;;;;;;4890834;29;20140;-76
2023/04/26 10:00:50;;;;;;;8.57;4.25;;;15.10;96.40;;;;;;4898142;29;20037;-76
2023/04/26 10:03:19;;;;;;;12.73;3.67;;;15.30;95.90;;;;;;4898280;29;20044;-76
2023/04/26 10:05:46;;;;;;;6.28;3.45;;;15.20;95.10;;;;;;4898484;29;20039;-74
2023/04/26 10:08:12;;;;;;;7.57;4.03;;;15.40;94.60;;;;;;4900747;29;20024;-74
2023/04/26 10:10:39;;;;;;;8.73;3.72;;;15.40;95.00;;;;;;4898038;29;20079;-73
2023/04/26 10:13:05;;;;;;;8.27;4.05;;;15.20;94.20;;;;;;4885607;29;20025;-73
2023/04/26 10:15:31;;;;;;;7.43;3.53;;;15.30;93.50;;;;;;4897868;29;20107;-73
2023/04/26 10:17:57;;;;;;;8.60;4.15;;;15.30;93.00;;;;;;4896340;29;20025;-74
2023/04/26 10:20:27;;;;;;;8.85;4.20;;;15.30;92.30;;;;;;4885836;29;20041;-74
2023/04/26 10:23:00;;;;;;;6.93;3.75;;;15.50;92.40;;;;;;4898024;29;20036;-76
2023/04/26 10:25:39;;;;;;;9.40;3.78;;;15.80;92.60;;;;;;4898414;29;20437;-77
2023/04/26 10:28:05;;;;;;;7.53;3.72;;;15.90;92.50;;;;;;4895443;29;20104;-74
2023/04/26 10:30:31;;;;;;;4.10;2.95;;;15.80;89.90;;;;;;4892627;29;20385;-73
2023/04/26 10:32:57;;;;;;;8.93;4.20;;;16.00;90.10;;;;;;4897954;29;20044;-75
2023/04/26 10:35:27;;;;;;;10.75;4.20;;;16.20;90.50;;;;;;4865729;29;20033;-74
2023/04/26 10:37:58;;;;;;;6.28;3.20;;;16.30;90.90;;;;;;4889833;29;20032;-73
2023/04/26 10:40:29;;;;;;;10.97;2.70;;;16.40;88.80;;;;;;4897315;29;20056;-73
2023/04/26 10:43:08;;;;;;;27.55;4.00;;;16.30;86.70;;;;;;4897794;29;20544;-73
2023/04/26 10:45:35;;;;;;;5.40;2.80;;;16.30;86.10;;;;;;4880381;29;20036;-75
2023/04/26 10:48:28;;;;;;;11.77;2.90;;;16.10;84.30;;;;;;4880649;29;20025;-76
2023/04/26 10:51:00;;;;;;;8.40;2.50;;;16.10;86.40;;;;;;4887950;29;20040;-73
2023/04/26 10:53:44;;;;;;;10.20;2.65;;;16.20;83.70;;;;;;4884304;29;20032;-75
2023/04/26 10:56:11;;;;;;;5.22;2.10;;;16.30;83.90;;;;;;4862808;29;20091;-74
2023/04/26 10:58:40;;;;;;;14.30;2.60;;;16.30;82.90;;;;;;4889701;29;20045;-74
2023/04/26 11:01:17;;;;;;;5.10;2.67;;;16.20;86.10;;;;;;4877516;29;20033;-72
2023/04/26 11:04:00;;;;;;;12.23;2.67;;;16.20;89.10;;;;;;4881452;29;20127;-74
2023/04/26 11:06:46;;;;;;;6.47;2.53;;;16.20;86.70;;;;;;4867025;29;20081;-76
2023/04/26 11:09:41;;;;;;;7.05;2.85;;;16.30;83.70;;;;;;4881258;29;20044;-74
2023/04/26 11:12:11;;;;;;;7.53;3.10;;;16.30;80.60;;;;;;4891306;29;20535;-76
2023/04/26 11:14:38;;;;;;;6.82;2.65;;;16.10;81.40;;;;;;4896819;29;20028;-73
2023/04/26 11:17:05;;;;;;;8.13;2.97;;;15.90;80.70;;;;;;4900948;29;20493;-73
2023/04/26 11:19:31;;;;;;;5.18;2.60;;;16.20;83.60;;;;;;4906801;29;20495;-73
2023/04/26 11:22:02;;;;;;;9.32;2.53;;;16.60;86.10;;;;;;4903535;29;20489;-75
2023/04/26 11:24:30;;;;;;;6.10;2.35;;;16.30;80.20;;;;;;4889923;29;20516;-75
2023/04/26 11:26:57;;;;;;;5.38;2.40;;;16.30;81.80;;;;;;4902558;29;20035;-73
2023/04/26 11:29:23;;;;;;;7.28;2.72;;;16.10;81.50;;;;;;4884041;29;20028;-73
2023/04/26 11:31:57;;;;;;;5.10;2.70;;;16.30;83.80;;;;;;4890464;29;20024;-76
2023/04/26 11:34:33;;;;;;;9.02;3.10;;;16.40;85.60;;;;;;4894698;29;20032;-73
2023/04/26 11:37:04;;;;;;;15.55;2.85;;;16.30;82.20;;;;;;4900935;29;20080;-74
2023/04/26 11:39:35;;;;;;;8.77;2.70;;;16.20;82.40;;;;;;4900941;29;20043;-74
2023/04/26 11:42:09;;;;;;;4.57;2.58;;;16.30;83.30;;;;;;4891972;29;20081;-73
2023/04/26 11:44:36;;;;;;;7.28;2.67;;;16.40;80.50;;;;;;4911814;29;20024;-74
2023/04/26 11:47:03;;;;;;;11.63;2.67;;;16.30;80.70;;;;;;4900924;29;20025;-74
2023/04/26 11:49:33;;;;;;;8.13;2.97;;;16.50;84.60;;;;;;4900269;29;20029;-74
2023/04/26 11:52:00;;;;;;;8.20;3.10;;;16.60;85.00;;;;;;4889339;29;20033;-74
2023/04/26 11:54:33;;;;;;;4.95;2.20;;;16.40;88.30;;;;;;4898937;29;20029;-73
2023/04/26 11:57:11;;;;;;;5.20;2.05;;;16.50;84.70;;;;;;4900737;29;20039;-73
2023/04/26 11:59:37;;;;;;;9.55;2.60;;;16.80;82.50;;;;;;4900501;29;20032;-75
2023/04/26 12:02:09;;;;;;;5.88;2.53;;;16.50;79.90;;;;;;4900356;29;20045;-75
2023/04/26 12:04:36;;;;;;;5.43;2.33;;;16.50;84.90;;;;;;4900498;29;20033;-74
2023/04/26 12:07:03;;;;;;;4.78;2.40;;;16.40;84.40;;;;;;4894658;29;20029;-77
2023/04/26 12:09:30;;;;;;;7.20;2.88;;;16.20;80.80;;;;;;4887729;29;20059;-77
2023/04/26 12:12:05;;;;;;;6.00;2.50;;;15.90;82.00;;;;;;4897211;29;20033;-73
2023/04/26 12:14:35;;;;;;;11.82;2.33;;;15.90;83.00;;;;;;4888478;29;20029;-75
2023/04/26 12:17:02;;;;;;;4.45;1.90;;;16.00;82.00;;;;;;4887465;29;20111;-74
2023/04/26 12:19:39;;;;;;;3.85;1.90;;;16.30;84.40;;;;;;4876009;29;20385;-75
2023/04/26 12:22:06;;;;;;;4.55;2.25;;;16.60;84.30;;;;;;4899731;29;20071;-76
2023/04/26 12:24:34;;;;;;;4.35;2.10;;;16.40;87.80;;;;;;4899062;29;20036;-75
2023/04/26 12:27:03;;;;;;;6.32;2.03;;;16.60;91.20;;;;;;4890353;29;20037;-74
2023/04/26 12:29:30;;;;;;;5.32;1.98;;;16.40;87.40;;;;;;4895937;29;20028;-75
2023/04/26 12:31:57;;;;;;;6.95;2.83;;;15.90;81.80;;;;;;4897316;29;20087;-77
2023/04/26 12:34:23;;;;;;;4.65;2.08;;;16.10;89.90;;;;;;4896675;29;20020;-74
2023/04/26 12:36:49;;;;;;;4.13;2.30;;;16.00;83.80;;;;;;4896484;29;20040;-74
2023/04/26 12:39:15;;;;;;;4.07;2.15;;;15.90;82.10;;;;;;4899858;29;20059;-76
2023/04/26 12:41:42;;;;;;;5.32;2.20;;;16.00;84.10;;;;;;4899839;29;20104;-77
2023/04/26 12:44:09;;;;;;;6.07;2.30;;;16.10;83.20;;;;;;4900208;29;20115;-75
2023/04/26 12:46:35;;;;;;;6.80;2.20;;;15.90;81.60;;;;;;4876334;29;20041;-77